Terminal Aerodrome Forecast
Issued by NWS

Home | Current Version | Previous Version | Text Only | Print | Product List | Glossary On
Versions: 1 2 3 4 5 6 7 8 9 10 11 12 13 14 15 16 17 18 19
000
FTUS43 KBIS 202100 AAB
TAFJMS
TAF AMD
KJMS 202121Z 2021/2118 16009KT 5SM HZ VCSH BKN005
     FM210000 19006KT P6SM SCT005 OVC070
     FM210500 21006KT P6SM FEW090
     FM211100 19004KT P6SM FEW250=

USA.gov is the U.S. government's official web portal to all federal, state and local government web resources and services.